Estació municipal de Seva (Osona, P.N. del Montseny)

Consulta les dades en temps real de l'estació municipal de Seva





Hora UTC 16:35
Temperatura 31.9 ºC
Sòl 15 cm 34.9 ºC
Humitat 46.2 %
Pressió 1023.0 hPa
Pluja 0.0 mm
Velocitat vent 7.9 km/h
Direcció vent S
Radiació solar 245.0 W/m²

Webcam

Dades diàries 2026-09-04



Hora UTC (hivern +1h; estiu +2h)
Temperatura (ºC) Humitat (%) Pressió (hPa) Velocitat vent (km/h) Precipitació (mm) Radiació solar (W/m²)
Hora UTC Aire Sòl 15 cm Humitat Pressió Vel. Dir. Vel. Max Dir. Intent. màx 5 min. Rad. Sol.
00:05 20.1 18.3 88.7 1025.7 1.0 ESE 1.0 E 0.0 0.1
00:10 19.9 18.3 88.7 1025.7 2.3 ESE 3.5 ESE 0.0 0.1
00:15 19.8 18.2 88.8 1025.7 0.5 ESE 2.1 ESE 0.0 0.1
00:20 19.8 18.1 88.8 1025.6 0.1 SE 1.4 SE 0.0 0.1
00:25 19.7 18.0 88.9 1025.6 1.2 S 2.1 SSE 0.0 0.1
00:30 19.7 17.9 89.5 1025.6 1.4 SSE 2.5 SE 0.0 0.1
00:35 19.5 17.9 89.7 1025.6 2.2 E 3.9 ENE 0.0 0.0
00:40 19.5 17.9 90.5 1025.5 4.8 ENE 5.6 ENE 0.0 0.0
00:45 19.4 17.8 90.1 1025.5 3.4 E 4.2 E 0.0 0.1
00:50 19.4 17.8 90.6 1025.5 2.1 E 2.8 E 0.0 0.0
00:55 19.4 17.8 90.8 1025.5 2.1 E 3.2 E 0.0 0.1
01:00 19.4 17.7 90.3 1025.4 2.6 E 3.5 E 0.0 0.0
01:05 19.3 17.7 90.5 1025.4 2.6 E 3.5 ENE 0.0 0.0
01:10 19.3 17.7 90.8 1025.3 2.6 E 3.5 E 0.0 0.1
01:15 19.2 17.6 91.0 1025.3 2.6 ESE 3.5 ENE 0.0 0.1
01:20 19.4 17.6 91.9 1025.2 2.6 E 3.2 ENE 0.0 0.0
01:25 19.3 17.5 91.2 1025.2 2.2 E 2.8 ENE 0.0 0.1
01:30 19.3 17.6 91.2 1025.2 2.4 E 3.2 E 0.0 0.1
01:35 19.2 17.5 91.4 1025.1 3.5 ENE 4.6 E 0.0 0.1
01:40 19.2 17.5 91.6 1025.1 3.0 E 4.2 ENE 0.0 0.0
01:45 19.1 17.5 91.9 1025.1 0.9 E 2.5 E 0.0 0.0
01:50 19.1 17.4 91.8 1025.1 0.0 ESE 1.1 ESE 0.0 0.1
01:55 19.1 17.4 92.3 1025.1 0.0 NNE 0.0 SE 0.0 0.0
02:00 19.1 17.3 92.2 1025.0 0.0 NNE 0.0 SSW 0.0 0.0
02:05 18.9 17.2 92.3 1025.0 0.0 NNE 0.0 S 0.0 0.1
02:10 18.9 17.1 92.7 1025.0 0.4 ENE 1.8 NE 0.0 0.1
02:15 18.7 17.0 92.8 1025.0 0.1 NE 1.4 NE 0.0 0.1
02:20 18.7 17.0 93.4 1025.0 2.7 ENE 4.6 ENE 0.0 0.1
02:25 18.6 16.9 93.3 1025.0 2.5 E 3.9 ENE 0.0 0.0
02:30 18.7 16.9 93.8 1024.9 3.2 ENE 4.2 E 0.0 0.1
02:35 18.6 16.9 93.8 1024.9 2.5 E 3.5 ENE 0.0 0.1
02:40 18.6 16.9 93.8 1025.0 2.7 E 3.2 ENE 0.0 0.0
02:45 18.5 16.9 93.9 1024.9 3.8 E 5.3 E 0.0 0.1
02:50 18.5 16.9 94.0 1024.9 4.8 E 5.3 E 0.0 0.1
02:55 18.4 16.8 94.0 1024.9 4.0 E 4.6 E 0.0 0.0
03:00 18.4 16.8 94.0 1024.8 3.0 ENE 3.5 E 0.0 0.0
03:05 18.3 16.7 94.1 1024.9 2.2 ENE 3.7 ENE 0.0 0.1
03:10 18.2 16.6 94.0 1024.8 1.9 ENE 2.8 E 0.0 0.1
03:15 18.2 16.5 94.3 1024.8 1.9 NE 3.2 NE 0.0 0.1
03:20 18.2 16.5 94.2 1024.8 1.9 ENE 3.5 NE 0.0 0.1
03:25 18.3 16.4 94.4 1024.7 2.1 ENE 3.9 NE 0.0 0.0
03:30 18.4 16.5 94.3 1024.7 3.3 ENE 5.6 NNE 0.0 0.0
03:35 18.2 16.5 94.2 1024.7 1.6 ENE 3.5 E 0.0 0.1
03:40 18.3 16.5 94.4 1024.7 2.2 ENE 3.9 NE 0.0 0.1
03:45 18.2 16.4 94.4 1024.7 1.5 ENE 2.5 NE 0.0 0.0
03:50 18.3 16.4 94.6 1024.6 2.6 ENE 3.9 ENE 0.0 0.1
03:55 18.2 16.4 94.2 1024.5 1.0 E 2.8 ENE 0.0 0.0
04:00 18.3 16.4 94.5 1024.5 0.8 W 2.5 WSW 0.0 0.1
04:05 18.4 16.4 94.3 1024.5 0.5 W 2.5 WSW 0.0 0.0
04:10 18.2 16.4 94.1 1024.4 0.0 NNW 1.1 NNW 0.0 0.1
04:15 18.1 16.3 94.0 1024.4 0.6 E 2.5 E 0.0 0.1
04:20 18.1 16.2 94.1 1024.4 1.3 E 2.8 E 0.0 0.1
04:25 18.1 16.2 94.2 1024.4 2.6 E 3.5 E 0.0 0.1
04:30 18.0 16.2 94.1 1024.4 1.9 E 2.8 ESE 0.0 0.0
04:35 17.9 16.1 94.3 1024.4 1.2 E 1.8 E 0.0 0.1
04:40 17.8 16.0 94.5 1024.4 2.0 E 2.8 E 0.0 0.1
04:45 17.7 15.9 94.6 1024.4 1.0 SE 2.5 SE 0.0 0.0
04:50 17.6 15.9 94.9 1024.3 1.9 ESE 2.8 ESE 0.0 0.0
04:55 17.6 15.9 95.2 1024.2 2.7 E 3.5 E 0.0 0.1
05:00 17.6 15.9 95.4 1024.2 1.0 SE 2.3 E 0.0 0.1
05:05 17.7 15.9 95.9 1024.2 1.3 S 2.8 SW 0.0 0.3
05:10 17.6 15.9 95.8 1024.2 0.9 E 2.5 ESE 0.0 0.7
05:15 17.6 15.9 96.1 1024.3 1.7 SW 4.2 SW 0.0 1.6
05:20 17.7 15.8 96.2 1024.2 0.9 SE 2.1 SE 0.0 2.9
05:25 17.6 15.8 96.2 1024.1 2.5 ESE 4.6 E 0.0 4.7
05:30 17.6 15.8 96.2 1024.1 3.7 E 5.6 E 0.0 6.9
05:35 17.6 15.8 96.3 1024.1 0.9 ESE 2.1 SE 0.0 9.5
05:40 17.5 15.8 96.2 1024.1 1.5 ESE 3.0 ESE 0.0 12.3
05:45 17.5 15.9 96.2 1024.1 1.5 ESE 2.8 E 0.0 15.1
05:50 17.5 15.9 96.3 1024.1 3.7 ENE 5.3 NE 0.0 18.3
05:55 17.4 16.0 96.3 1024.1 4.9 ENE 6.0 ENE 0.0 31.5
06:00 17.5 16.0 96.4 1024.2 3.4 ENE 4.6 ENE 0.0 50.7
06:05 17.7 16.1 96.6 1024.2 2.5 E 3.2 E 0.0 85.2
06:10 17.8 16.3 96.5 1024.3 1.5 E 2.1 ENE 0.0 100.3
06:15 17.9 16.4 96.5 1024.3 1.7 ENE 3.2 ENE 0.0 113.3
06:20 18.1 16.6 96.3 1024.3 2.9 ENE 3.9 NE 0.0 125.8
06:25 18.3 16.9 95.9 1024.3 2.5 NE 3.9 ENE 0.0 138.3
06:30 18.5 17.1 95.6 1024.2 1.3 NE 2.8 NE 0.0 149.4
06:35 18.7 17.3 95.3 1024.3 0.1 NNW 1.4 NE 0.0 159.7
06:40 19.0 17.4 94.4 1024.3 0.5 NW 1.8 NW 0.0 171.1
06:45 19.6 17.6 92.3 1024.3 1.1 WNW 3.2 W 0.0 185.3
06:50 20.2 18.5 88.9 1024.3 2.0 NW 3.5 NW 0.0 199.4
06:55 20.5 20.2 86.1 1024.3 1.6 NW 4.2 WNW 0.0 213.7
07:00 21.0 20.7 84.4 1024.3 0.9 N 2.8 NNW 0.0 228.7
07:05 21.4 21.3 82.0 1024.3 2.9 NNW 4.6 NNW 0.0 243.6
07:10 21.6 22.2 80.9 1024.3 2.0 NNW 3.2 WNW 0.0 258.0
07:15 21.9 22.9 80.0 1024.3 2.0 NNW 3.9 N 0.0 272.1
07:20 22.1 24.3 79.3 1024.3 2.9 NNW 4.6 NW 0.0 287.2
07:25 22.3 25.9 78.7 1024.3 2.8 NW 4.9 NNW 0.0 301.8
07:30 22.4 26.9 77.2 1024.3 3.4 NNW 4.9 NNW 0.0 316.3
07:35 22.7 27.9 75.7 1024.3 2.5 NNW 4.2 NNW 0.0 331.0
07:40 22.9 28.6 74.3 1024.3 3.7 NNW 6.4 NW 0.0 344.7
07:45 23.1 28.8 73.1 1024.3 4.0 NNW 6.0 NNW 0.0 358.9
07:50 23.1 29.1 72.3 1024.3 4.7 NNW 6.7 NNW 0.0 372.9
07:55 23.2 29.4 72.1 1024.3 4.4 NNW 6.4 NNW 0.0 387.0
08:00 23.3 29.8 72.2 1024.3 4.9 WNW 7.8 NW 0.0 400.5
08:05 23.2 30.3 72.4 1024.3 4.7 WNW 8.1 WNW 0.0 413.5
08:10 23.5 30.9 71.7 1024.3 4.3 NW 6.0 WNW 0.0 427.1
08:15 23.8 31.4 70.4 1024.3 3.5 N 6.0 NNW 0.0 440.1
08:20 24.1 31.6 69.4 1024.3 2.9 NW 6.7 NW 0.0 453.3
08:25 24.4 31.9 68.3 1024.3 3.0 WNW 6.0 NNW 0.0 467.0
08:30 24.6 32.5 67.2 1024.3 3.3 WNW 6.0 WNW 0.0 479.7
08:35 24.9 32.5 66.6 1024.3 3.4 WNW 6.7 WNW 0.0 492.2
08:40 25.3 33.1 65.0 1024.4 3.3 WNW 5.6 NW 0.0 503.7
08:45 25.4 33.4 64.2 1024.4 3.8 NNW 7.8 NW 0.0 515.6
08:50 25.5 33.3 63.9 1024.4 3.8 NNW 7.8 NNW 0.0 527.3
08:55 25.8 33.4 62.7 1024.4 3.4 NNW 7.4 NW 0.0 539.0
09:00 26.2 34.1 61.7 1024.4 3.2 NW 7.1 NW 0.0 551.1
09:05 26.5 34.8 60.6 1024.4 3.7 NW 6.0 NW 0.0 562.8
09:10 26.9 35.2 59.6 1024.4 4.2 NNW 8.1 NW 0.0 573.9
09:15 27.4 35.7 58.6 1024.4 5.0 NW 7.8 NW 0.0 585.2
09:20 27.7 36.5 57.6 1024.5 3.5 WNW 5.3 WNW 0.0 594.5
09:25 28.2 36.9 57.2 1024.4 1.7 WSW 4.9 WNW 0.0 605.3
09:30 28.9 37.2 53.8 1024.4 3.8 N 6.4 N 0.0 616.4
09:35 29.2 37.3 53.1 1024.3 5.0 NW 8.1 WNW 0.0 623.2
09:40 29.5 37.5 51.5 1024.3 4.0 NW 7.1 W 0.0 630.6
09:45 30.2 38.0 49.3 1024.3 4.4 NW 7.8 NNW 0.0 641.5
09:50 30.5 38.8 48.9 1024.3 4.2 W 7.8 NW 0.0 651.7
09:55 30.9 39.5 47.6 1024.3 5.2 W 9.9 W 0.0 658.7
10:00 31.4 39.9 43.8 1024.3 5.3 W 9.2 WSW 0.0 667.9
10:05 31.8 40.4 44.5 1024.2 5.2 WNW 8.5 NW 0.0 674.4
10:10 31.7 40.3 43.3 1024.2 6.1 WNW 10.6 WSW 0.0 682.0
10:15 32.2 40.6 40.7 1024.2 6.5 WNW 11.3 WSW 0.0 689.3
10:20 32.3 41.0 38.4 1024.1 4.8 WSW 12.0 NW 0.0 699.1
10:25 32.8 40.8 35.1 1024.1 5.7 S 12.0 S 0.0 707.2
10:30 33.1 40.3 32.7 1024.1 5.5 SW 13.8 SSW 0.0 713.3
10:35 33.2 40.8 32.4 1024.0 6.0 WSW 14.1 WSW 0.0 718.7
10:40 33.5 41.0 32.1 1024.0 7.9 SW 17.3 SW 0.0 723.5
10:45 33.7 41.0 31.7 1024.0 7.5 SW 16.2 SW 0.0 732.1
10:50 33.9 41.2 31.5 1024.0 8.3 SW 15.2 SW 0.0 738.4
10:55 34.3 41.4 30.0 1023.9 6.6 SSW 12.7 WSW 0.0 743.9
11:00 34.1 41.5 30.8 1023.8 9.8 SW 18.7 SSE 0.0 742.6
11:05 34.3 41.0 28.7 1023.8 7.8 SSW 17.3 S 0.0 748.3
11:10 34.5 41.1 26.2 1023.8 9.8 SW 20.1 SW 0.0 755.7
11:15 34.3 41.2 28.1 1023.8 5.9 SW 12.4 SSW 0.0 748.9
11:20 34.7 41.8 27.7 1023.8 9.0 SW 21.0 SW 0.0 750.4
11:25 34.5 42.0 27.4 1023.8 5.8 SSW 19.8 SW 0.0 764.0
11:30 34.4 41.7 27.2 1023.7 7.9 S 20.1 SSW 0.0 757.5
11:35 34.6 41.3 28.2 1023.7 11.0 SW 28.2 SSW 0.0 757.3
11:40 34.8 41.2 24.5 1023.7 11.6 WSW 24.7 WNW 0.0 765.9
11:45 34.7 41.3 22.8 1023.7 12.9 W 25.8 WSW 0.0 769.7
11:50 34.7 41.5 24.2 1023.7 12.8 SW 29.3 WSW 0.0 772.8
11:55 34.6 41.5 21.6 1023.7 14.0 W 27.9 NW 0.0 765.2
12:00 35.1 41.6 25.1 1023.5 13.3 WSW 31.4 SW 0.0 758.3
12:05 35.0 41.1 26.8 1023.7 8.7 S 19.8 SSW 0.0 763.5
12:10 34.8 41.1 23.8 1023.7 9.3 SW 23.3 WSW 0.0 760.3
12:15 34.7 40.8 24.6 1023.3 24.8 W 49.0 WSW 0.0 756.2
12:20 35.0 40.7 28.0 1023.6 9.0 WSW 17.3 WSW 0.0 757.3
12:25 35.1 41.8 26.6 1023.5 9.1 SW 19.4 SSW 0.0 749.4
12:30 35.3 42.2 24.9 1023.5 4.8 WSW 12.0 S 0.0 749.9
12:35 35.6 43.4 22.8 1023.4 8.9 W 15.7 WNW 0.0 748.9
12:40 35.4 43.6 25.1 1023.4 8.9 SW 24.7 SSW 0.0 744.2
12:45 35.5 43.2 25.6 1023.3 9.4 SSW 24.0 SSW 0.0 743.7
12:50 35.2 42.4 23.6 1023.4 10.0 WSW 20.5 WSW 0.0 745.1
12:55 35.1 42.5 25.2 1023.3 11.1 SW 26.1 SW 0.0 740.7
13:00 35.1 42.6 24.8 1023.2 8.1 SW 18.7 WSW 0.0 730.6
13:05 34.8 41.6 25.6 1023.2 7.2 SE 18.7 SSW 0.0 721.7
13:10 35.0 41.5 27.2 1023.2 6.6 WSW 15.5 NW 0.0 721.5
13:15 35.3 42.1 26.0 1023.1 5.5 SSW 14.5 SSW 0.0 716.0
13:20 35.5 42.5 24.4 1023.1 13.3 W 24.0 W 0.0 645.3
13:25 35.7 42.7 25.4 1023.1 9.0 WSW 21.2 WNW 0.0 688.7
13:30 35.5 42.4 30.0 1023.0 5.9 SSE 24.0 SW 0.0 683.9
13:35 35.5 42.0 28.6 1023.0 7.9 SW 16.2 SSE 0.0 685.2
13:40 35.6 42.6 27.9 1022.9 7.1 S 16.6 S 0.0 685.5
13:45 35.5 41.9 27.0 1023.0 9.7 SW 24.7 SSW 0.0 667.7
13:50 35.8 42.1 25.4 1023.0 9.2 SW 15.2 SW 0.0 660.9
13:55 35.4 42.0 31.9 1023.0 7.2 SSE 22.2 SSE 0.0 634.6
14:00 34.7 40.8 34.7 1023.0 8.4 S 18.0 SSW 0.0 622.7
14:05 34.7 40.2 36.1 1023.0 10.7 S 19.4 SSE 0.0 615.9
14:10 34.4 39.6 37.3 1022.9 8.8 SSE 21.9 S 0.0 613.7
14:15 34.3 39.1 38.6 1022.9 10.6 S 21.5 SSW 0.0 600.0
14:20 34.6 39.6 38.1 1022.9 8.1 S 17.3 SSW 0.0 591.5
14:25 34.2 39.2 39.7 1022.9 13.2 SSE 26.1 SSE 0.0 589.2
14:30 33.7 38.0 41.1 1022.9 9.4 SSE 21.2 SSE 0.0 581.7
14:35 33.9 38.1 40.2 1022.9 9.3 S 20.8 S 0.0 568.0
14:40 33.9 37.9 41.3 1022.9 11.1 SSE 21.9 SSE 0.0 553.0
14:45 33.6 37.6 42.6 1022.8 7.8 SSE 15.9 SSE 0.0 535.2
14:50 33.4 37.5 43.0 1022.9 8.6 SSE 18.4 SE 0.0 527.4
14:55 33.4 37.9 43.8 1022.9 7.4 SSE 18.7 S 0.0 525.1
15:00 33.4 37.8 43.9 1022.9 8.2 SSE 19.4 SSE 0.0 512.8
15:05 33.1 37.5 44.3 1022.9 8.1 SSE 21.2 SSW 0.0 497.8
15:10 32.8 37.2 44.3 1022.8 9.6 SSE 21.9 SSW 0.0 485.1
15:15 32.9 37.1 44.0 1022.8 9.7 SSE 20.5 S 0.0 475.6
15:20 32.8 37.0 44.0 1022.8 9.5 SE 20.5 ESE 0.0 466.1
15:25 32.7 36.7 44.0 1022.8 10.6 SE 22.6 SE 0.0 451.8
15:30 32.8 36.7 44.0 1022.8 9.3 SSE 17.3 SSE 0.0 432.1
15:35 32.6 36.6 44.8 1022.9 9.2 SSE 21.9 SSE 0.0 419.4
15:40 32.5 36.8 44.8 1022.9 12.4 S 24.0 S 0.0 406.4
15:45 32.5 37.0 45.4 1022.9 7.8 S 18.7 S 0.0 393.1
15:50 32.7 37.4 44.6 1023.0 7.5 S 18.0 S 0.0 378.6
15:55 32.6 37.2 45.3 1023.0 10.5 S 24.7 S 0.0 364.3
16:00 32.5 37.0 45.7 1023.0 9.7 SSW 20.8 S 0.0 348.9
16:05 32.5 36.7 46.1 1023.0 8.7 S 20.5 S 0.0 335.7
16:10 32.6 36.6 45.8 1022.9 10.3 S 24.3 SSW 0.0 320.5
16:15 32.2 36.3 46.5 1023.0 10.0 S 23.3 SSW 0.0 307.5
16:20 32.3 36.2 46.2 1023.0 8.7 SSW 18.0 S 0.0 292.9
16:25 32.0 35.7 46.3 1023.1 10.0 SSE 19.8 SSE 0.0 278.3
16:30 31.9 35.2 46.2 1023.0 10.1 S 22.9 S 0.0 262.0
16:35 31.9 34.9 46.2 1023.0 7.9 S 16.9 SSW 0.0 245.0
Màxima 35.8 43.6 96.6 1025.7 24.8 W 49.0 WSW 0.0 772.8
Mínima 17.4 15.8 21.6 1022.8
Total 0.0